createdAt,value
2022-11-30T00:00:52.668Z,12.95
2022-11-30T00:05:56.212Z,13.00
2022-11-30T00:10:59.684Z,13.20
2022-11-30T00:16:04.752Z,13.06
2022-11-30T00:21:09.723Z,12.90
2022-11-30T00:26:15.095Z,12.98
2022-11-30T00:31:20.856Z,12.88
2022-11-30T00:36:24.441Z,12.87
2022-11-30T00:41:27.949Z,12.85
2022-11-30T00:46:32.850Z,12.63
2022-11-30T00:51:36.361Z,12.93
2022-11-30T00:56:39.908Z,12.89
2022-11-30T01:01:44.846Z,13.04
2022-11-30T01:06:48.349Z,12.93
2022-11-30T01:11:52.504Z,12.72
2022-11-30T01:16:57.426Z,13.01
2022-11-30T01:22:00.921Z,12.90
2022-11-30T01:27:04.817Z,12.91
2022-11-30T01:32:09.778Z,12.98
2022-11-30T01:37:13.276Z,13.11
2022-11-30T01:42:18.744Z,13.08
2022-11-30T01:47:27.191Z,12.76
2022-11-30T01:52:34.345Z,12.82
2022-11-30T01:57:39.473Z,12.91
2022-11-30T02:02:51.277Z,12.92
2022-11-30T02:07:55.398Z,12.87
2022-11-30T02:13:11.473Z,13.05
2022-11-30T02:18:20.734Z,12.87
2022-11-30T02:23:49.730Z,12.99
2022-11-30T02:29:04.151Z,13.13
2022-11-30T02:34:08.904Z,13.14
2022-11-30T02:39:12.948Z,13.21
2022-11-30T02:44:18.155Z,13.06
2022-11-30T02:49:27.233Z,13.08
2022-11-30T02:54:30.643Z,12.83
2022-11-30T02:59:35.600Z,12.68
2022-11-30T03:04:39.206Z,12.86
2022-11-30T03:09:42.742Z,12.96
2022-11-30T03:14:47.807Z,12.92
2022-11-30T03:19:51.589Z,12.80
2022-11-30T03:24:54.952Z,12.84
2022-11-30T03:29:59.784Z,12.87
2022-11-30T03:35:03.229Z,12.79
2022-11-30T03:40:08.392Z,12.90
2022-11-30T03:45:13.507Z,12.91
2022-11-30T03:50:17.172Z,12.87
2022-11-30T03:55:20.628Z,12.97
2022-11-30T04:00:25.589Z,12.92
2022-11-30T04:05:29.154Z,12.86
2022-11-30T04:10:32.729Z,12.97
2022-11-30T04:15:37.564Z,12.89
2022-11-30T04:20:40.978Z,12.77
2022-11-30T04:25:44.563Z,12.89
2022-11-30T04:30:49.461Z,12.86
2022-11-30T04:35:55.036Z,12.78
2022-11-30T04:40:58.451Z,12.85
2022-11-30T04:46:04.034Z,12.89
2022-11-30T04:51:09.181Z,12.96
2022-11-30T04:56:12.872Z,12.84
2022-11-30T05:01:17.807Z,12.96
2022-11-30T05:06:21.274Z,12.94
2022-11-30T05:11:24.709Z,12.79
2022-11-30T05:16:29.610Z,12.85
2022-11-30T05:21:33.485Z,12.91
2022-11-30T05:26:37.225Z,13.07
2022-11-30T05:31:42.057Z,13.05
2022-11-30T05:36:45.615Z,12.98
2022-11-30T05:41:49.182Z,13.04
2022-11-30T05:46:54.168Z,13.06
2022-11-30T05:51:57.597Z,13.03
2022-11-30T05:57:01.193Z,13.10
2022-11-30T06:02:06.130Z,13.09
2022-11-30T06:07:11.968Z,13.00
2022-11-30T06:12:15.459Z,12.92
2022-11-30T06:17:20.377Z,12.84
2022-11-30T06:22:23.793Z,12.83
2022-11-30T06:27:31.426Z,12.81
2022-11-30T06:32:36.273Z,12.87
2022-11-30T06:37:39.801Z,13.06
2022-11-30T06:42:43.256Z,13.12
2022-11-30T06:47:48.190Z,13.10
2022-11-30T06:52:51.640Z,13.07
2022-11-30T06:57:55.116Z,13.21
2022-11-30T07:03:00.097Z,13.12
2022-11-30T07:08:03.845Z,13.04
2022-11-30T07:13:07.425Z,13.14
2022-11-30T07:18:12.796Z,13.05
2022-11-30T07:23:33.997Z,12.93
2022-11-30T07:28:39.253Z,12.96
2022-11-30T07:33:44.341Z,12.98
2022-11-30T07:38:48.182Z,12.81
2022-11-30T07:43:51.853Z,12.72
2022-11-30T07:48:56.800Z,12.77
2022-11-30T07:54:00.680Z,12.65
2022-11-30T07:59:04.689Z,12.88
2022-11-30T08:04:13.751Z,12.79
2022-11-30T08:09:20.642Z,12.83
2022-11-30T08:14:24.482Z,12.94
2022-11-30T08:19:29.627Z,12.85
2022-11-30T08:24:33.208Z,13.05
2022-11-30T08:29:36.763Z,13.06
2022-11-30T08:34:44.402Z,13.06
2022-11-30T08:39:47.951Z,12.81
2022-11-30T08:44:51.397Z,12.99
2022-11-30T08:49:56.349Z,13.19
2022-11-30T08:54:59.817Z,13.09
2022-11-30T09:00:03.760Z,13.29
2022-11-30T09:05:09.162Z,13.28
2022-11-30T09:10:13.225Z,13.29
2022-11-30T09:15:16.849Z,13.48
2022-11-30T09:20:21.861Z,13.51
2022-11-30T09:25:25.489Z,13.58
2022-11-30T09:30:28.975Z,13.71
2022-11-30T09:35:33.881Z,13.73
2022-11-30T09:40:38.411Z,13.71
2022-11-30T09:45:44.716Z,13.78
2022-11-30T09:50:50.213Z,13.84
2022-11-30T09:55:54.743Z,13.88
2022-11-30T10:01:01.238Z,14.04
2022-11-30T10:06:11.046Z,14.06
2022-11-30T10:11:32.667Z,13.96
2022-11-30T10:16:42.100Z,13.94
2022-11-30T10:21:57.144Z,14.11
2022-11-30T10:27:05.170Z,14.01
2022-11-30T10:32:14.966Z,13.96
2022-11-30T10:37:23.152Z,14.03
2022-11-30T10:42:31.880Z,14.06
2022-11-30T10:47:37.107Z,13.93
2022-11-30T10:52:45.964Z,14.02
2022-11-30T10:57:52.148Z,14.04
2022-11-30T11:02:55.725Z,14.12
2022-11-30T11:08:06.815Z,14.05
2022-11-30T11:13:17.037Z,14.17
2022-11-30T11:18:26.058Z,14.25
2022-11-30T11:23:33.991Z,14.17
2022-11-30T11:28:38.102Z,14.13
2022-11-30T11:33:51.599Z,14.08
2022-11-30T11:38:58.723Z,14.16
2022-11-30T11:44:10.143Z,14.12
2022-11-30T11:49:22.293Z,14.08
2022-11-30T11:54:30.441Z,14.11
2022-11-30T11:59:39.810Z,14.18
2022-11-30T12:04:45.832Z,14.32
2022-11-30T12:10:16.507Z,14.25
2022-11-30T12:15:32.909Z,13.96
2022-11-30T12:20:44.442Z,14.16
2022-11-30T12:25:54.968Z,14.24
2022-11-30T12:31:11.541Z,14.21
2022-11-30T12:36:21.505Z,14.14
2022-11-30T12:41:38.615Z,14.12
2022-11-30T12:46:49.383Z,13.96
2022-11-30T12:52:00.439Z,13.90
2022-11-30T12:57:12.211Z,14.02
2022-11-30T13:02:30.321Z,13.95
2022-11-30T13:07:38.013Z,13.97
2022-11-30T13:12:45.137Z,14.00
2022-11-30T13:17:49.730Z,13.87
2022-11-30T13:22:57.498Z,13.93
2022-11-30T13:28:08.542Z,14.03
2022-11-30T13:33:49.368Z,14.07
2022-11-30T13:39:28.628Z,13.98
2022-11-30T13:44:35.060Z,13.94
2022-11-30T13:49:38.725Z,13.76
2022-11-30T13:54:44.213Z,13.49
2022-11-30T13:59:51.549Z,13.71
2022-11-30T14:04:55.138Z,13.70
2022-11-30T14:10:00.288Z,13.23
2022-11-30T14:15:45.999Z,13.24
2022-11-30T14:20:52.729Z,13.29
2022-11-30T14:25:58.741Z,13.80
2022-11-30T14:31:03.712Z,13.81
2022-11-30T14:36:08.442Z,13.93
2022-11-30T14:41:23.079Z,13.83
2022-11-30T14:46:28.797Z,13.87
2022-11-30T14:51:35.642Z,13.88
2022-11-30T14:56:44.085Z,13.56
2022-11-30T15:01:49.113Z,13.68
2022-11-30T15:06:52.747Z,13.77
2022-11-30T15:11:57.190Z,13.79
2022-11-30T15:17:02.240Z,13.95
2022-11-30T15:22:05.759Z,13.87
2022-11-30T15:27:11.496Z,13.50
2022-11-30T15:32:19.125Z,13.78
2022-11-30T15:37:23.029Z,13.89
2022-11-30T15:42:30.173Z,13.83
2022-11-30T15:47:37.502Z,13.74
2022-11-30T15:52:45.848Z,13.41
2022-11-30T15:58:00.246Z,13.73
2022-11-30T16:03:12.683Z,13.70
2022-11-30T16:08:17.780Z,13.58
2022-11-30T16:13:22.679Z,13.68
2022-11-30T16:18:28.855Z,13.57
2022-11-30T16:23:34.677Z,13.54
2022-11-30T16:28:38.200Z,13.58
2022-11-30T16:33:43.158Z,13.59
2022-11-30T16:38:48.762Z,13.52
2022-11-30T16:43:54.349Z,13.65
2022-11-30T16:48:59.188Z,13.63
2022-11-30T16:54:02.737Z,13.62
2022-11-30T16:59:06.225Z,13.70
2022-11-30T17:04:16.949Z,13.78
2022-11-30T17:09:21.688Z,13.73
2022-11-30T17:14:25.224Z,13.65
2022-11-30T17:19:30.119Z,13.80
2022-11-30T17:24:34.601Z,13.61
2022-11-30T17:29:38.272Z,13.57
2022-11-30T17:34:43.360Z,13.62
2022-11-30T17:39:46.907Z,13.67
2022-11-30T17:44:50.652Z,13.53
2022-11-30T17:49:56.615Z,13.61
2022-11-30T17:55:00.197Z,13.55
2022-11-30T18:00:05.551Z,13.51
2022-11-30T18:05:10.877Z,13.58
2022-11-30T18:10:14.987Z,13.47
2022-11-30T18:15:18.667Z,13.45
2022-11-30T18:20:23.576Z,13.44
2022-11-30T18:25:27.077Z,13.54
2022-11-30T18:30:30.472Z,13.58
2022-11-30T18:35:35.913Z,13.53
2022-11-30T18:40:39.365Z,13.48
2022-11-30T18:45:42.825Z,13.53
2022-11-30T18:50:47.629Z,13.55
2022-11-30T18:55:51.332Z,13.51
2022-11-30T19:00:54.773Z,13.42
2022-11-30T19:06:04.348Z,13.42
2022-11-30T19:11:09.372Z,13.52
2022-11-30T19:16:16.217Z,13.52
2022-11-30T19:21:22.380Z,13.38
2022-11-30T19:26:27.860Z,13.45
2022-11-30T19:31:31.287Z,13.47
2022-11-30T19:36:36.403Z,13.44
2022-11-30T19:41:40.005Z,13.33
2022-11-30T19:46:43.596Z,13.40
2022-11-30T19:51:48.459Z,13.23
2022-11-30T19:56:51.969Z,13.31
2022-11-30T20:01:55.492Z,13.34
2022-11-30T20:07:01.612Z,13.39
2022-11-30T20:12:05.789Z,13.35
2022-11-30T20:17:09.981Z,13.35
2022-11-30T20:22:14.875Z,13.38
2022-11-30T20:27:22.226Z,13.23
2022-11-30T20:32:25.767Z,13.17
2022-11-30T20:37:30.638Z,13.20
2022-11-30T20:42:34.031Z,13.07
2022-11-30T20:47:37.582Z,13.06
2022-11-30T20:52:42.768Z,13.13
2022-11-30T20:57:47.877Z,13.19
2022-11-30T21:02:51.553Z,13.20
2022-11-30T21:07:56.522Z,13.17
2022-11-30T21:13:00.257Z,13.13
2022-11-30T21:18:03.813Z,13.14
2022-11-30T21:23:08.918Z,13.05
2022-11-30T21:28:12.434Z,13.13
2022-11-30T21:33:16.204Z,13.04
2022-11-30T21:38:21.097Z,13.06
2022-11-30T21:43:24.643Z,12.90
2022-11-30T21:48:30.150Z,12.80
2022-11-30T21:53:38.212Z,12.70
2022-11-30T21:58:43.253Z,12.78
2022-11-30T22:03:47.291Z,12.78
2022-11-30T22:08:52.200Z,12.74
2022-11-30T22:13:56.061Z,12.87
2022-11-30T22:18:59.550Z,12.77
2022-11-30T22:24:05.759Z,12.81
2022-11-30T22:29:13.346Z,12.99
2022-11-30T22:34:16.980Z,12.94
2022-11-30T22:39:22.569Z,12.79
2022-11-30T22:44:26.700Z,12.70
2022-11-30T22:49:30.337Z,12.75
2022-11-30T22:54:35.293Z,12.74
2022-11-30T22:59:38.743Z,12.79
2022-11-30T23:04:42.173Z,12.72
2022-11-30T23:09:47.337Z,12.83
2022-11-30T23:14:50.889Z,12.79
2022-11-30T23:19:54.378Z,12.55
2022-11-30T23:24:59.274Z,12.64
2022-11-30T23:30:02.750Z,12.57
2022-11-30T23:35:06.867Z,12.65
2022-11-30T23:40:13.000Z,12.59
2022-11-30T23:45:16.617Z,12.48
2022-11-30T23:50:20.169Z,12.56
2022-11-30T23:55:25.093Z,12.63
